CheckWX is a tool to help pilots better visualize weather data.  It is not intended as a substitute for an official pre-flight weather briefing.

18:38:24 UTC

KOEB METAR
Branch County Memorial Airport
Coldwater, Michigan, USA
Current

22 mins ago

KOEB 201816Z AUTO 00000KT 10SM CLR 29/11 A3013 RMK AO2 T02890114
Observed
Sep-20 @ 18:16 UTC
Visibility
10 SM
Flight Rules
VFR
Cloud Levels
  • Clear skies
Temperature
29°C / 84°F
Dewpoint
11°C / 52°F
Humidity
33%
Altimeter
30.13" Hg
Pressure
1020.32 hPa
Previous

42 mins ago

KOEB 201756Z AUTO 00000KT 10SM CLR 29/12 A3014 RMK AO2 T02850115 10294 20145
Observed
Sep-20 @ 17:56 UTC
Visibility
10 SM
Flight Rules
VFR
Cloud Levels
  • Clear skies
Temperature
29°C / 84°F
Dewpoint
12°C / 54°F
Humidity
35%
Altimeter
30.14" Hg
Pressure
1020.62 hPa
Previous

1 hour ago

KOEB 201736Z AUTO 25004KT 10SM CLR 29/11 A3015 RMK AO2 T02880108
Observed
Sep-20 @ 17:36 UTC
Wind
  • 250° at 4 KTS
Visibility
10 SM
Flight Rules
VFR
Cloud Levels
  • Clear skies
Temperature
29°C / 84°F
Dewpoint
11°C / 52°F
Humidity
33%
Altimeter
30.15" Hg
Pressure
1021.02 hPa